Time;durP1;ratioP1;P1;durP2;ratioP2;P2;SDS_P1;SDS_P2;PMS_P1;PMS_P2;Temp;Humidity;BMP_temperature;BMP_pressure;BME280_temperature;BME280_humidity;BME280_pressure;Samples;Min_cycle;Max_cycle;Signal;HPM_P1;HPM_P2
2023/04/27 00:00:17;;;;;;;8.60;5.60;;;5.90;99.90;;;;;;5134524;27;20212;-77
2023/04/27 00:02:46;;;;;;;8.70;6.00;;;5.90;99.90;;;;;;5134480;27;20252;-77
2023/04/27 00:05:14;;;;;;;7.30;6.07;;;5.90;99.90;;;;;;5134884;27;20212;-75
2023/04/27 00:07:42;;;;;;;10.40;6.27;;;5.90;99.90;;;;;;5134739;27;20213;-76
2023/04/27 00:10:11;;;;;;;9.63;6.40;;;5.90;99.90;;;;;;5135130;27;20317;-74
2023/04/27 00:12:40;;;;;;;8.70;5.83;;;5.80;99.90;;;;;;5134506;27;20413;-79
2023/04/27 00:15:10;;;;;;;9.37;5.93;;;5.80;99.90;;;;;;5134628;27;20283;-76
2023/04/27 00:17:39;;;;;;;8.90;6.10;;;5.80;99.90;;;;;;5143861;27;20205;-75
2023/04/27 00:20:10;;;;;;;9.77;6.70;;;5.80;99.90;;;;;;5134925;27;20212;-80
2023/04/27 00:22:38;;;;;;;7.13;5.70;;;5.80;99.90;;;;;;5134391;27;20206;-80
2023/04/27 00:25:07;;;;;;;9.67;6.63;;;5.80;99.90;;;;;;5134283;27;20634;-79
2023/04/27 00:27:35;;;;;;;7.70;6.00;;;5.80;99.90;;;;;;5148334;27;20264;-78
2023/04/27 00:30:04;;;;;;;9.07;6.07;;;5.90;99.90;;;;;;5155113;27;20233;-77
2023/04/27 00:32:32;;;;;;;7.33;6.07;;;5.90;99.90;;;;;;5136111;27;20213;-79
2023/04/27 00:35:01;;;;;;;8.87;6.03;;;5.90;99.90;;;;;;5134028;27;20240;-76
2023/04/27 00:37:29;;;;;;;9.80;6.30;;;5.90;99.90;;;;;;5134248;27;20206;-76
2023/04/27 00:39:57;;;;;;;9.60;6.33;;;5.90;99.90;;;;;;5133729;27;20475;-80
2023/04/27 00:42:25;;;;;;;10.97;6.70;;;5.90;99.90;;;;;;5133508;27;20201;-79
2023/04/27 00:44:53;;;;;;;9.03;6.43;;;5.90;99.90;;;;;;5133677;27;20205;-77
2023/04/27 00:47:21;;;;;;;8.77;6.20;;;5.90;99.90;;;;;;5133973;27;20252;-79
2023/04/27 00:49:50;;;;;;;7.60;6.00;;;5.90;99.90;;;;;;5133507;27;20216;-76
2023/04/27 00:52:19;;;;;;;9.33;6.23;;;5.90;99.90;;;;;;5133777;27;20251;-78
2023/04/27 00:54:51;;;;;;;8.60;5.60;;;5.90;99.90;;;;;;5134056;27;20221;-78
2023/04/27 00:57:19;;;;;;;8.00;5.67;;;5.90;99.90;;;;;;5114630;27;20205;-80
2023/04/27 00:59:47;;;;;;;5.77;4.97;;;5.90;99.90;;;;;;5153917;27;20220;-75
2023/04/27 01:02:15;;;;;;;8.23;4.87;;;5.90;99.90;;;;;;5153993;27;20568;-76
2023/04/27 01:04:44;;;;;;;7.73;5.00;;;5.90;99.90;;;;;;5154210;27;20205;-77
2023/04/27 01:07:12;;;;;;;6.13;4.90;;;5.90;99.90;;;;;;5144889;27;20212;-76
2023/04/27 01:09:41;;;;;;;7.43;4.87;;;5.80;99.90;;;;;;5133175;27;20713;-78
2023/04/27 01:12:09;;;;;;;7.93;5.13;;;5.90;99.90;;;;;;5133317;27;20198;-78
2023/04/27 01:14:37;;;;;;;8.07;4.93;;;5.80;99.90;;;;;;5133024;27;20214;-77
2023/04/27 01:17:06;;;;;;;9.23;5.00;;;5.80;99.90;;;;;;5132781;27;20212;-81
2023/04/27 01:19:34;;;;;;;6.97;5.50;;;5.80;99.90;;;;;;5133395;27;20237;-81
2023/04/27 01:22:02;;;;;;;7.63;5.70;;;5.80;99.90;;;;;;5132631;27;20216;-78
2023/04/27 01:24:32;;;;;;;10.97;5.53;;;5.70;99.90;;;;;;5133221;27;20225;-78
2023/04/27 01:27:00;;;;;;;8.50;5.67;;;5.70;99.90;;;;;;5132617;27;20210;-79
2023/04/27 01:29:28;;;;;;;8.87;5.57;;;5.70;99.90;;;;;;5132652;27;20207;-80
2023/04/27 01:31:56;;;;;;;7.43;5.80;;;5.60;99.90;;;;;;5132768;27;20213;-79
2023/04/27 01:34:24;;;;;;;8.73;5.80;;;5.50;99.90;;;;;;5149126;27;20238;-78
2023/04/27 01:36:52;;;;;;;8.77;5.97;;;5.50;99.90;;;;;;5133408;27;20647;-79
2023/04/27 01:39:22;;;;;;;9.00;5.80;;;5.50;99.90;;;;;;5132664;27;20194;-78
2023/04/27 01:41:51;;;;;;;11.87;6.37;;;5.40;99.90;;;;;;5132704;27;20582;-78
2023/04/27 01:44:20;;;;;;;12.67;6.30;;;5.40;99.90;;;;;;5132776;27;20205;-78
2023/04/27 01:46:48;;;;;;;9.43;5.93;;;5.40;99.90;;;;;;5132874;27;20735;-79
2023/04/27 01:49:16;;;;;;;10.03;6.43;;;5.30;99.90;;;;;;5132717;27;20663;-79
2023/04/27 01:51:44;;;;;;;7.70;6.07;;;5.30;99.90;;;;;;5132316;27;20604;-79
2023/04/27 01:54:12;;;;;;;8.20;5.93;;;5.40;99.90;;;;;;5132433;27;20236;-79
2023/04/27 01:56:40;;;;;;;9.27;6.37;;;5.30;99.90;;;;;;5132965;27;20549;-80
2023/04/27 01:59:10;;;;;;;8.47;5.97;;;5.30;99.90;;;;;;5138257;27;20208;-79
2023/04/27 02:01:38;;;;;;;8.77;5.97;;;5.30;99.90;;;;;;5153338;27;20208;-78
2023/04/27 02:04:06;;;;;;;7.07;5.80;;;5.30;99.90;;;;;;5153458;27;20454;-78
2023/04/27 02:06:35;;;;;;;9.83;6.20;;;5.30;99.90;;;;;;5153350;27;20291;-78
2023/04/27 02:09:03;;;;;;;8.43;6.10;;;5.30;99.90;;;;;;5152131;27;20221;-78
2023/04/27 02:11:31;;;;;;;6.73;5.17;;;5.30;99.90;;;;;;5153334;27;20204;-75
2023/04/27 02:13:59;;;;;;;9.40;5.87;;;5.40;99.90;;;;;;5152999;27;20224;-77
2023/04/27 02:16:29;;;;;;;8.80;5.67;;;5.30;99.90;;;;;;5153424;27;20485;-79
2023/04/27 02:18:57;;;;;;;7.93;6.00;;;5.30;99.90;;;;;;5138245;27;20205;-78
2023/04/27 02:21:27;;;;;;;7.73;5.23;;;5.40;99.90;;;;;;5133315;27;20685;-79
2023/04/27 02:23:55;;;;;;;8.87;6.10;;;5.40;99.90;;;;;;5142318;27;20332;-77
2023/04/27 02:26:28;;;;;;;9.53;5.97;;;5.40;99.90;;;;;;5157520;27;20252;-78
2023/04/27 02:28:56;;;;;;;11.13;5.60;;;5.40;99.90;;;;;;5156419;27;20212;-79
2023/04/27 02:31:25;;;;;;;8.10;5.70;;;5.40;99.90;;;;;;5157342;27;20575;-80
2023/04/27 02:33:55;;;;;;;7.00;5.53;;;5.40;99.90;;;;;;5157120;27;20225;-79
2023/04/27 02:36:23;;;;;;;9.57;6.30;;;5.40;99.90;;;;;;5153737;27;20217;-80
2023/04/27 02:38:51;;;;;;;7.77;5.67;;;5.40;99.90;;;;;;5136448;27;20219;-79
2023/04/27 02:41:19;;;;;;;7.60;5.80;;;5.40;99.90;;;;;;5136164;27;20283;-79
2023/04/27 02:43:47;;;;;;;10.37;6.50;;;5.40;99.90;;;;;;5135905;27;20659;-80
2023/04/27 02:46:15;;;;;;;8.37;6.20;;;5.40;99.90;;;;;;5150011;27;20235;-78
2023/04/27 02:48:43;;;;;;;8.27;5.73;;;5.40;99.90;;;;;;5157292;27;20204;-80
2023/04/27 02:51:13;;;;;;;10.00;6.53;;;5.40;99.90;;;;;;5157049;27;20209;-78
2023/04/27 02:53:41;;;;;;;8.77;6.00;;;5.40;99.90;;;;;;5157199;27;20269;-76
2023/04/27 02:56:09;;;;;;;10.23;6.43;;;5.40;99.90;;;;;;5143691;27;20205;-77
2023/04/27 02:58:37;;;;;;;9.77;6.60;;;5.40;99.90;;;;;;5145579;27;20297;-78
2023/04/27 03:01:05;;;;;;;9.67;6.77;;;5.40;99.90;;;;;;5135725;27;20216;-78
2023/04/27 03:03:33;;;;;;;11.83;6.90;;;5.40;99.90;;;;;;5135431;27;20209;-80
2023/04/27 03:06:02;;;;;;;9.97;7.10;;;5.40;99.90;;;;;;5136064;27;20206;-79
2023/04/27 03:08:31;;;;;;;8.50;6.57;;;5.40;99.90;;;;;;5135803;27;20205;-76
2023/04/27 03:11:00;;;;;;;9.23;6.73;;;5.40;99.90;;;;;;5149318;27;20571;-79
2023/04/27 03:13:28;;;;;;;8.70;6.53;;;5.30;99.90;;;;;;5156474;27;20355;-80
2023/04/27 03:15:56;;;;;;;9.50;6.50;;;5.30;99.90;;;;;;5156126;27;20263;-80
2023/04/27 03:18:24;;;;;;;10.23;7.00;;;5.30;99.90;;;;;;5150129;27;20262;-80
2023/04/27 03:20:52;;;;;;;9.13;6.70;;;5.20;99.90;;;;;;5135797;27;20720;-78
2023/04/27 03:23:20;;;;;;;12.20;6.70;;;5.10;99.90;;;;;;5148483;27;20300;-77
2023/04/27 03:25:49;;;;;;;8.03;6.27;;;5.10;99.90;;;;;;5154554;27;20217;-76
2023/04/27 03:28:17;;;;;;;7.70;6.23;;;5.10;99.90;;;;;;5135168;27;20579;-78
2023/04/27 03:30:45;;;;;;;11.67;6.70;;;5.00;99.90;;;;;;5135226;27;20685;-77
2023/04/27 03:33:13;;;;;;;11.30;7.20;;;4.90;99.90;;;;;;5133544;27;20650;-75
2023/04/27 03:35:41;;;;;;;8.90;6.57;;;4.80;99.90;;;;;;5134764;27;20232;-79
2023/04/27 03:38:09;;;;;;;9.53;7.13;;;4.80;99.90;;;;;;5135300;27;20202;-76
2023/04/27 03:40:37;;;;;;;9.73;6.90;;;4.70;99.90;;;;;;5135318;27;20216;-81
2023/04/27 03:43:07;;;;;;;14.07;6.97;;;4.60;99.90;;;;;;5134672;27;20205;-77
2023/04/27 03:45:35;;;;;;;13.27;7.33;;;4.60;99.90;;;;;;5134801;27;20729;-79
2023/04/27 03:48:03;;;;;;;11.60;7.27;;;4.50;99.90;;;;;;5134958;27;20721;-75
2023/04/27 03:50:31;;;;;;;10.93;7.23;;;4.40;99.90;;;;;;5134934;27;20205;-77
2023/04/27 03:52:59;;;;;;;10.97;7.47;;;4.40;99.90;;;;;;5134850;27;20209;-76
2023/04/27 03:55:27;;;;;;;10.73;7.50;;;4.30;99.90;;;;;;5135275;27;20227;-77
2023/04/27 03:57:55;;;;;;;8.93;7.73;;;4.30;99.90;;;;;;5135049;27;20621;-78
2023/04/27 04:00:25;;;;;;;14.43;7.70;;;4.20;99.90;;;;;;5135764;27;20220;-77
2023/04/27 04:02:54;;;;;;;15.27;8.57;;;4.20;99.90;;;;;;5134899;27;20214;-78
2023/04/27 04:05:23;;;;;;;15.50;8.23;;;4.20;99.90;;;;;;5134876;27;20225;-77
2023/04/27 04:07:51;;;;;;;10.23;7.90;;;4.20;99.90;;;;;;5134663;27;20296;-77
2023/04/27 04:10:19;;;;;;;10.17;7.27;;;4.10;99.90;;;;;;5134815;27;20297;-77
2023/04/27 04:12:47;;;;;;;13.33;8.40;;;4.10;99.90;;;;;;5134492;27;20217;-80
2023/04/27 04:15:15;;;;;;;12.20;7.90;;;4.10;99.90;;;;;;5134826;27;20226;-80
2023/04/27 04:17:46;;;;;;;16.07;8.17;;;4.00;99.90;;;;;;5134600;27;20667;-80
2023/04/27 04:20:14;;;;;;;13.10;7.97;;;4.00;99.90;;;;;;5135641;27;20292;-77
2023/04/27 04:22:43;;;;;;;17.23;7.97;;;4.00;99.90;;;;;;5153893;27;20670;-77
2023/04/27 04:25:11;;;;;;;16.60;8.57;;;4.00;99.90;;;;;;5154810;27;20207;-79
2023/04/27 04:27:40;;;;;;;17.13;9.07;;;4.00;99.90;;;;;;5155430;27;20227;-80
2023/04/27 04:30:10;;;;;;;10.70;7.77;;;4.00;99.90;;;;;;5139777;27;20217;-80
2023/04/27 04:32:39;;;;;;;9.83;7.77;;;4.10;99.90;;;;;;5143763;27;20270;-80
2023/04/27 04:35:08;;;;;;;18.20;8.07;;;4.20;99.90;;;;;;5155858;27;20227;-77
2023/04/27 04:37:37;;;;;;;14.43;8.93;;;4.20;99.90;;;;;;5155493;27;20205;-80
2023/04/27 04:40:08;;;;;;;9.63;7.63;;;4.30;99.90;;;;;;5153190;27;20213;-77
2023/04/27 04:42:37;;;;;;;10.73;8.37;;;4.40;99.90;;;;;;5134493;27;20635;-79
2023/04/27 04:45:06;;;;;;;11.43;8.83;;;4.50;99.90;;;;;;5134010;27;20522;-81
2023/04/27 04:47:35;;;;;;;13.13;8.03;;;4.70;99.90;;;;;;5136087;27;20685;-77
2023/04/27 04:50:03;;;;;;;11.83;9.00;;;4.80;99.90;;;;;;5134496;27;20210;-78
2023/04/27 04:52:33;;;;;;;11.50;7.83;;;5.00;99.90;;;;;;5134135;27;20636;-75
2023/04/27 04:55:01;;;;;;;14.77;8.17;;;5.10;99.90;;;;;;5134834;27;20213;-75
2023/04/27 04:57:30;;;;;;;11.13;7.77;;;5.30;99.90;;;;;;5135196;27;20851;-75
2023/04/27 04:59:58;;;;;;;10.30;7.60;;;5.30;99.90;;;;;;5137290;27;20240;-74
2023/04/27 05:02:26;;;;;;;9.90;7.40;;;5.40;99.90;;;;;;5161181;27;20201;-75
2023/04/27 05:04:56;;;;;;;11.67;7.30;;;5.60;99.90;;;;;;5162992;27;20368;-74
2023/04/27 05:07:24;;;;;;;12.30;6.90;;;5.60;99.90;;;;;;5137516;27;20212;-79
2023/04/27 05:09:55;;;;;;;10.13;7.00;;;5.80;99.90;;;;;;5134163;27;20229;-78
2023/04/27 05:12:23;;;;;;;10.60;7.40;;;5.80;99.90;;;;;;5133707;27;20288;-76
2023/04/27 05:14:51;;;;;;;12.90;7.57;;;5.90;99.90;;;;;;5145329;27;20639;-72
2023/04/27 05:17:19;;;;;;;9.67;7.03;;;6.10;99.90;;;;;;5154316;27;20666;-78
2023/04/27 05:19:47;;;;;;;9.87;6.90;;;5.90;99.90;;;;;;5154371;27;20204;-75
2023/04/27 05:22:15;;;;;;;11.03;6.70;;;6.00;99.90;;;;;;5154209;27;20642;-77
2023/04/27 05:24:43;;;;;;;9.77;6.77;;;6.10;99.90;;;;;;5140639;27;20296;-77
2023/04/27 05:27:14;;;;;;;13.83;7.47;;;6.20;99.90;;;;;;5134174;27;20206;-78
2023/04/27 05:29:43;;;;;;;9.67;6.57;;;6.30;99.90;;;;;;5133419;27;20201;-79
2023/04/27 05:32:11;;;;;;;8.13;6.13;;;6.40;99.90;;;;;;5134144;27;20211;-77
2023/04/27 05:34:39;;;;;;;9.27;6.47;;;6.50;99.90;;;;;;5153887;27;20670;-78
2023/04/27 05:37:07;;;;;;;13.00;6.60;;;6.60;99.90;;;;;;5154242;27;20260;-78
2023/04/27 05:39:36;;;;;;;9.37;6.30;;;6.70;99.90;;;;;;5152731;27;20216;-75
2023/04/27 05:42:04;;;;;;;10.17;6.43;;;6.90;99.90;;;;;;5153719;27;20296;-77
2023/04/27 05:44:34;;;;;;;11.07;6.50;;;6.90;99.90;;;;;;5154122;27;20219;-76
2023/04/27 05:47:02;;;;;;;8.87;6.70;;;7.00;99.90;;;;;;5154303;27;20299;-79
2023/04/27 05:49:30;;;;;;;12.77;6.30;;;7.10;99.90;;;;;;5139921;27;20662;-77
2023/04/27 05:51:58;;;;;;;11.20;6.70;;;7.30;99.90;;;;;;5133403;27;20205;-78
2023/04/27 05:54:27;;;;;;;8.93;6.20;;;7.40;99.90;;;;;;5133867;27;20308;-78
2023/04/27 05:56:55;;;;;;;11.37;6.50;;;7.40;99.90;;;;;;5132480;27;20225;-79
2023/04/27 05:59:23;;;;;;;8.57;6.20;;;7.60;99.90;;;;;;5135909;27;20208;-78
2023/04/27 06:01:52;;;;;;;11.67;6.10;;;7.70;99.90;;;;;;5132636;27;20209;-78
2023/04/27 06:04:21;;;;;;;8.53;5.90;;;7.80;99.90;;;;;;5133272;28;20224;-76
2023/04/27 06:06:49;;;;;;;10.97;6.90;;;7.80;99.90;;;;;;5133509;28;20284;-77
2023/04/27 06:09:17;;;;;;;10.03;6.23;;;7.90;99.90;;;;;;5133920;27;20573;-77
2023/04/27 06:11:46;;;;;;;8.50;5.57;;;8.00;99.90;;;;;;5137696;27;20197;-77
2023/04/27 06:14:15;;;;;;;7.53;5.40;;;8.00;99.90;;;;;;5153689;27;20226;-79
2023/04/27 06:16:43;;;;;;;9.83;6.10;;;8.00;99.90;;;;;;5161107;27;20241;-75
2023/04/27 06:19:13;;;;;;;8.87;6.40;;;8.20;99.90;;;;;;5153951;27;20204;-75
2023/04/27 06:21:44;;;;;;;9.37;6.13;;;8.30;99.90;;;;;;5162248;27;20837;-75
2023/04/27 06:24:15;;;;;;;9.00;6.23;;;8.40;99.90;;;;;;5161263;27;20192;-74
2023/04/27 06:26:43;;;;;;;7.70;6.00;;;8.40;99.90;;;;;;5163251;27;20218;-79
2023/04/27 06:29:11;;;;;;;8.77;5.90;;;8.40;99.90;;;;;;5137459;27;20348;-77
2023/04/27 06:31:40;;;;;;;9.80;5.87;;;8.60;99.90;;;;;;5133520;28;20266;-78
2023/04/27 06:34:08;;;;;;;8.33;5.17;;;8.50;99.90;;;;;;5133443;27;20251;-79
2023/04/27 06:36:37;;;;;;;10.77;6.10;;;8.80;99.90;;;;;;5132438;27;20224;-77
2023/04/27 06:39:05;;;;;;;8.20;5.70;;;8.90;99.90;;;;;;5132747;28;20608;-79
2023/04/27 06:41:34;;;;;;;7.00;5.60;;;9.00;99.90;;;;;;5135134;27;20279;-77
2023/04/27 06:44:02;;;;;;;10.13;5.73;;;9.00;99.90;;;;;;5174885;27;20204;-77
2023/04/27 06:46:30;;;;;;;7.43;5.10;;;9.20;99.90;;;;;;5132898;27;20272;-79
2023/04/27 06:48:58;;;;;;;10.33;5.90;;;9.40;99.90;;;;;;5132843;28;20210;-79
2023/04/27 06:51:27;;;;;;;10.30;5.40;;;9.00;99.90;;;;;;5146197;27;20291;-77
2023/04/27 06:53:56;;;;;;;7.27;5.43;;;9.10;99.90;;;;;;5148988;27;20203;-77
2023/04/27 06:56:25;;;;;;;10.30;5.50;;;9.10;99.90;;;;;;5152907;27;20264;-76
2023/04/27 06:58:53;;;;;;;9.07;5.50;;;9.10;99.90;;;;;;5165983;27;20293;-76
2023/04/27 07:01:21;;;;;;;8.77;6.00;;;9.40;99.90;;;;;;5158331;27;20477;-78
2023/04/27 07:03:50;;;;;;;10.03;5.87;;;9.50;99.90;;;;;;5140775;27;20236;-79
2023/04/27 07:06:19;;;;;;;8.93;5.20;;;9.70;99.90;;;;;;5132459;28;20201;-80
2023/04/27 07:08:47;;;;;;;8.60;5.37;;;10.00;99.90;;;;;;5134839;27;20793;-78
2023/04/27 07:11:16;;;;;;;8.27;4.90;;;10.10;99.90;;;;;;5136079;27;20214;-79
2023/04/27 07:13:44;;;;;;;7.63;5.00;;;9.80;99.90;;;;;;5136072;27;20205;-78
2023/04/27 07:16:13;;;;;;;11.20;5.43;;;10.10;99.90;;;;;;5136819;27;20213;-78
2023/04/27 07:18:41;;;;;;;9.57;5.47;;;10.30;99.90;;;;;;5156571;27;20213;-77
2023/04/27 07:21:11;;;;;;;8.37;5.20;;;10.50;99.90;;;;;;5146649;27;20332;-77
2023/04/27 07:23:40;;;;;;;9.50;5.47;;;10.50;99.90;;;;;;5136648;27;20209;-73
2023/04/27 07:26:08;;;;;;;6.70;4.83;;;10.30;99.90;;;;;;5137947;27;20318;-73
2023/04/27 07:28:38;;;;;;;7.93;5.00;;;10.40;99.90;;;;;;5138210;27;20205;-78
2023/04/27 07:31:07;;;;;;;8.70;4.67;;;10.70;99.90;;;;;;5136578;27;20212;-79
2023/04/27 07:33:35;;;;;;;6.60;4.47;;;11.60;99.90;;;;;;5136116;27;20714;-76
2023/04/27 07:36:04;;;;;;;8.97;5.13;;;11.60;99.90;;;;;;5134526;27;20219;-75
2023/04/27 07:38:32;;;;;;;9.40;4.50;;;11.90;99.90;;;;;;5133587;27;20226;-76
2023/04/27 07:41:01;;;;;;;11.40;5.10;;;12.40;99.90;;;;;;5133464;27;20207;-77
2023/04/27 07:43:30;;;;;;;10.40;5.27;;;12.50;99.90;;;;;;5134135;27;20208;-77
2023/04/27 07:46:00;;;;;;;9.83;4.50;;;12.40;99.90;;;;;;5134168;27;20222;-78
2023/04/27 07:48:29;;;;;;;7.93;4.50;;;12.50;99.90;;;;;;5135507;27;20202;-76
2023/04/27 07:51:00;;;;;;;7.73;4.73;;;12.40;99.90;;;;;;5135385;27;20667;-78
2023/04/27 07:53:28;;;;;;;8.77;4.80;;;12.50;99.90;;;;;;5133583;27;20292;-77
2023/04/27 07:55:56;;;;;;;6.13;4.40;;;12.60;99.90;;;;;;5134337;27;20279;-78
2023/04/27 07:58:25;;;;;;;5.90;3.90;;;13.00;99.90;;;;;;5133235;27;20264;-73
2023/04/27 08:00:53;;;;;;;6.70;3.63;;;13.30;99.90;;;;;;5135306;27;20205;-75
2023/04/27 08:03:22;;;;;;;7.93;4.13;;;13.60;99.90;;;;;;5134553;27;20232;-76
2023/04/27 08:05:51;;;;;;;10.00;4.30;;;13.70;99.90;;;;;;5135096;27;20210;-78
2023/04/27 08:08:19;;;;;;;7.17;4.03;;;13.40;99.90;;;;;;5134940;27;20620;-76
2023/04/27 08:10:47;;;;;;;7.93;4.33;;;13.70;99.90;;;;;;5134839;27;20690;-77
2023/04/27 08:13:16;;;;;;;6.97;4.20;;;14.00;99.90;;;;;;5134347;27;20420;-77
2023/04/27 08:15:44;;;;;;;7.00;4.57;;;14.10;99.90;;;;;;5143063;27;20251;-78
2023/04/27 08:18:12;;;;;;;6.50;3.60;;;13.90;97.70;;;;;;5155260;27;20312;-76
2023/04/27 08:20:41;;;;;;;6.93;3.77;;;13.60;94.20;;;;;;5154772;27;20204;-75
2023/04/27 08:23:09;;;;;;;5.93;3.60;;;13.80;95.30;;;;;;5148158;27;20293;-73
2023/04/27 08:25:37;;;;;;;6.30;3.67;;;14.00;94.90;;;;;;5136092;27;20616;-72
2023/04/27 08:28:06;;;;;;;5.20;3.50;;;14.30;94.60;;;;;;5142252;27;20212;-74
2023/04/27 08:30:34;;;;;;;6.10;3.50;;;14.30;93.70;;;;;;5163794;27;20207;-76
2023/04/27 08:33:02;;;;;;;5.30;3.50;;;14.20;91.10;;;;;;5158344;27;20308;-76
2023/04/27 08:35:31;;;;;;;6.67;3.67;;;13.90;90.00;;;;;;5158568;27;20204;-75
2023/04/27 08:38:01;;;;;;;8.63;3.50;;;13.90;90.50;;;;;;5165277;27;20403;-75
2023/04/27 08:40:29;;;;;;;5.23;3.20;;;14.00;90.30;;;;;;5166562;27;20326;-76
2023/04/27 08:42:58;;;;;;;12.27;7.87;;;14.50;90.10;;;;;;5156715;27;20670;-71
2023/04/27 08:45:27;;;;;;;7.07;3.50;;;15.00;90.60;;;;;;5169711;27;20201;-73
2023/04/27 08:47:56;;;;;;;5.70;3.40;;;15.10;84.90;;;;;;5163619;27;20280;-75
2023/04/27 08:50:24;;;;;;;11.53;5.00;;;15.50;89.00;;;;;;5155010;27;20239;-74
2023/04/27 08:52:52;;;;;;;7.00;3.80;;;15.40;86.20;;;;;;5137265;27;20205;-76
2023/04/27 08:55:22;;;;;;;9.13;4.27;;;15.60;84.70;;;;;;5143122;27;20242;-75
2023/04/27 08:57:55;;;;;;;6.50;3.73;;;15.40;85.80;;;;;;5154772;27;20234;-74
2023/04/27 09:00:26;;;;;;;6.37;4.03;;;14.70;85.60;;;;;;5155653;27;20220;-74
2023/04/27 09:02:54;;;;;;;5.30;3.30;;;14.40;84.00;;;;;;5168560;27;20291;-75
2023/04/27 09:05:23;;;;;;;7.57;3.57;;;15.00;84.80;;;;;;5180469;27;20211;-77
2023/04/27 09:07:59;;;;;;;7.23;3.33;;;14.90;82.50;;;;;;5176690;27;20230;-75
2023/04/27 09:10:29;;;;;;;6.53;3.73;;;15.00;82.50;;;;;;5154037;27;20209;-76
2023/04/27 09:12:58;;;;;;;9.00;3.97;;;15.40;86.10;;;;;;5168709;27;20244;-75
2023/04/27 09:15:28;;;;;;;6.77;3.53;;;15.80;82.50;;;;;;5157441;27;20297;-76
2023/04/27 09:17:57;;;;;;;8.20;3.90;;;16.30;79.80;;;;;;5148551;27;20225;-75
2023/04/27 09:20:27;;;;;;;6.60;3.53;;;16.80;79.30;;;;;;5133707;27;20288;-76
2023/04/27 09:22:56;;;;;;;5.77;3.47;;;17.10;73.50;;;;;;5133050;27;20248;-76
2023/04/27 09:25:27;;;;;;;6.43;3.90;;;17.80;73.60;;;;;;5133454;27;20566;-74
2023/04/27 09:27:57;;;;;;;6.73;3.70;;;17.90;69.20;;;;;;5150669;27;20303;-73
2023/04/27 09:30:26;;;;;;;6.30;3.50;;;18.00;68.10;;;;;;5170413;27;20201;-72
2023/04/27 09:32:56;;;;;;;5.50;3.80;;;18.70;71.50;;;;;;5153813;27;20303;-74
2023/04/27 09:35:26;;;;;;;5.53;3.30;;;18.70;63.60;;;;;;5149966;27;20248;-76
2023/04/27 09:37:56;;;;;;;6.70;3.53;;;18.60;62.50;;;;;;5133539;27;20242;-77
2023/04/27 09:40:26;;;;;;;5.83;3.73;;;19.30;62.80;;;;;;5133453;27;20318;-74
2023/04/27 09:42:58;;;;;;;6.60;3.20;;;20.40;62.80;;;;;;5133111;27;20210;-76
2023/04/27 09:45:26;;;;;;;8.93;3.77;;;20.40;61.10;;;;;;5132850;27;20224;-73
2023/04/27 09:47:55;;;;;;;6.10;3.60;;;20.40;56.80;;;;;;5133050;27;20659;-78
2023/04/27 09:50:23;;;;;;;8.33;3.90;;;19.30;56.60;;;;;;5132980;27;20667;-76
2023/04/27 09:52:51;;;;;;;7.97;3.60;;;19.40;57.60;;;;;;5137854;27;20214;-75
2023/04/27 09:55:24;;;;;;;5.53;3.70;;;20.40;62.60;;;;;;5141662;27;20247;-77
2023/04/27 09:58:06;;;;;;;7.50;3.70;;;20.30;54.60;;;;;;5136911;27;20217;-76
2023/04/27 10:00:48;;;;;;;5.83;3.80;;;21.10;56.90;;;;;;5141687;27;20247;-74
2023/04/27 10:03:23;;;;;;;8.50;4.00;;;19.50;54.30;;;;;;5154741;27;20762;-74
2023/04/27 10:06:42;;;;;;;6.75;3.90;;;20.60;54.80;;;;;;5175579;27;20227;-74
2023/04/27 10:09:12;;;;;;;8.02;4.00;;;21.10;53.30;;;;;;5063907;28;20236;-76
2023/04/27 10:11:42;;;;;;;7.45;3.50;;;21.80;54.80;;;;;;5048655;28;20219;-77
2023/04/27 10:14:18;;;;;;;7.80;4.22;;;22.00;55.70;;;;;;5118401;27;20212;-76
2023/04/27 10:16:47;;;;;;;9.00;4.00;;;21.80;53.40;;;;;;5153856;27;20230;-76
2023/04/27 10:19:15;;;;;;;7.78;3.60;;;21.40;55.70;;;;;;5139158;27;20222;-77
2023/04/27 10:21:55;;;;;;;9.45;3.40;;;21.30;53.70;;;;;;5132748;28;20636;-76
2023/04/27 10:24:36;;;;;;;5.32;3.50;;;22.60;55.20;;;;;;5133464;28;20212;-76
2023/04/27 10:27:05;;;;;;;7.57;3.70;;;21.90;55.00;;;;;;5133032;28;20323;-77
2023/04/27 10:29:40;;;;;;;7.38;3.60;;;22.60;52.10;;;;;;5132871;28;20661;-76
2023/04/27 10:32:11;;;;;;;5.57;3.35;;;22.40;50.50;;;;;;5132635;28;20227;-77
2023/04/27 10:34:41;;;;;;;7.80;3.55;;;21.90;52.70;;;;;;5133310;28;20220;-75
2023/04/27 10:37:12;;;;;;;6.50;3.47;;;21.90;50.60;;;;;;5132020;28;20292;-76
2023/04/27 10:39:42;;;;;;;4.53;3.20;;;22.60;49.40;;;;;;5132483;28;20225;-75
2023/04/27 10:42:26;;;;;;;6.60;3.55;;;22.90;52.20;;;;;;5132840;27;20220;-75
2023/04/27 10:44:57;;;;;;;5.63;3.45;;;23.40;51.30;;;;;;5119123;27;20186;-73
2023/04/27 10:47:36;;;;;;;7.78;3.72;;;22.40;50.20;;;;;;5136096;27;20212;-75
2023/04/27 10:50:05;;;;;;;8.88;3.80;;;23.10;48.60;;;;;;5136625;27;20213;-74
2023/04/27 10:52:33;;;;;;;6.47;3.72;;;22.60;49.90;;;;;;5135939;27;20205;-73
2023/04/27 10:55:13;;;;;;;7.90;4.00;;;22.80;48.30;;;;;;5135573;27;20206;-73
2023/04/27 10:57:47;;;;;;;7.13;3.55;;;22.80;47.90;;;;;;5137318;27;20671;-75
2023/04/27 11:00:23;;;;;;;6.70;3.88;;;22.40;49.50;;;;;;5136027;27;20676;-72
2023/04/27 11:02:52;;;;;;;6.78;3.83;;;21.10;48.70;;;;;;5152163;27;20287;-72
2023/04/27 11:05:23;;;;;;;4.67;3.60;;;20.20;52.10;;;;;;5155893;27;20193;-71
2023/04/27 11:07:52;;;;;;;5.50;4.00;;;19.40;51.90;;;;;;5155776;27;20201;-72
2023/04/27 11:10:20;;;;;;;8.53;4.07;;;18.20;54.10;;;;;;5153776;27;21830;-74
2023/04/27 11:12:49;;;;;;;8.43;4.30;;;18.70;55.70;;;;;;5154459;27;20247;-75
2023/04/27 11:15:18;;;;;;;6.33;4.10;;;17.30;56.40;;;;;;5156203;27;20201;-74
2023/04/27 11:17:46;;;;;;;7.37;4.27;;;17.10;59.10;;;;;;5155526;27;20292;-76
2023/04/27 11:20:21;;;;;;;6.90;4.57;;;17.10;59.90;;;;;;5153507;27;20579;-73
2023/04/27 11:22:49;;;;;;;7.03;4.20;;;16.80;59.20;;;;;;5153801;27;20218;-76
2023/04/27 11:25:17;;;;;;;8.10;4.80;;;16.30;59.50;;;;;;5156135;27;20197;-77
2023/04/27 11:27:45;;;;;;;10.37;4.83;;;15.30;61.70;;;;;;5156349;27;20223;-77
2023/04/27 11:30:21;;;;;;;7.67;4.53;;;15.30;66.00;;;;;;5154824;27;20201;-76
2023/04/27 11:32:52;;;;;;;9.00;4.80;;;15.80;64.40;;;;;;5153774;27;20567;-77
2023/04/27 11:35:32;;;;;;;9.50;4.40;;;15.70;65.00;;;;;;5155700;27;20219;-76
2023/04/27 11:38:00;;;;;;;7.77;4.80;;;16.10;64.40;;;;;;5153811;27;20197;-77
2023/04/27 11:40:28;;;;;;;7.93;4.57;;;16.50;64.00;;;;;;5155804;27;20227;-78
2023/04/27 11:43:02;;;;;;;5.83;4.13;;;17.30;64.40;;;;;;5155492;27;20288;-77
2023/04/27 11:45:32;;;;;;;7.80;4.40;;;17.50;60.70;;;;;;5153490;27;20193;-76
2023/04/27 11:48:02;;;;;;;10.03;4.27;;;17.40;60.70;;;;;;5155880;27;20204;-75
2023/04/27 11:50:30;;;;;;;6.57;4.10;;;17.30;61.20;;;;;;5155388;27;20525;-77
2023/04/27 11:53:01;;;;;;;7.67;4.43;;;17.00;61.30;;;;;;5155443;27;20236;-75
2023/04/27 11:55:30;;;;;;;8.30;4.23;;;16.60;60.80;;;;;;5153678;27;20231;-73
2023/04/27 11:57:58;;;;;;;8.67;4.53;;;16.40;65.70;;;;;;5154894;27;20204;-76
2023/04/27 12:00:27;;;;;;;5.13;4.13;;;16.70;70.50;;;;;;5154554;27;20240;-76
2023/04/27 12:02:58;;;;;;;5.97;4.43;;;17.10;67.10;;;;;;5155312;27;20510;-77
2023/04/27 12:05:26;;;;;;;6.93;4.43;;;17.70;63.00;;;;;;5152817;27;20284;-76
2023/04/27 12:07:55;;;;;;;6.63;4.50;;;17.90;62.20;;;;;;5155323;27;20646;-77
2023/04/27 12:10:23;;;;;;;8.33;5.07;;;17.80;59.40;;;;;;5153610;27;20281;-76
2023/04/27 12:12:51;;;;;;;10.50;5.83;;;17.40;63.80;;;;;;5155149;27;20193;-76
2023/04/27 12:15:19;;;;;;;6.80;4.50;;;17.10;63.80;;;;;;5155394;27;20205;-73
2023/04/27 12:17:47;;;;;;;6.77;4.73;;;17.30;66.80;;;;;;5154190;27;20207;-76
2023/04/27 12:20:17;;;;;;;7.43;4.67;;;16.90;66.80;;;;;;5154874;27;20212;-75
2023/04/27 12:22:45;;;;;;;7.10;4.83;;;16.80;70.50;;;;;;5151890;27;20572;-75
2023/04/27 12:25:13;;;;;;;7.93;4.67;;;16.80;66.60;;;;;;5149727;27;20197;-75
2023/04/27 12:27:41;;;;;;;7.73;4.53;;;16.50;63.60;;;;;;5155327;27;20200;-76
2023/04/27 12:30:11;;;;;;;8.60;4.60;;;17.10;65.60;;;;;;5154716;27;20197;-75
2023/04/27 12:32:39;;;;;;;6.20;4.83;;;17.00;60.90;;;;;;5154206;27;20251;-78
2023/04/27 12:35:08;;;;;;;7.13;4.70;;;17.30;65.00;;;;;;5150825;27;20213;-77
2023/04/27 12:37:38;;;;;;;7.50;4.50;;;17.40;60.10;;;;;;5154705;27;20303;-78
2023/04/27 12:40:08;;;;;;;7.93;4.40;;;17.80;66.90;;;;;;5152105;27;20646;-76
2023/04/27 12:42:37;;;;;;;8.73;4.70;;;17.90;61.60;;;;;;5153899;27;20232;-77
2023/04/27 12:45:06;;;;;;;6.80;4.53;;;18.10;60.00;;;;;;5153178;27;20207;-76
2023/04/27 12:47:35;;;;;;;9.00;4.90;;;18.10;62.10;;;;;;5152660;27;20204;-75
2023/04/27 12:50:08;;;;;;;6.03;4.90;;;18.40;66.50;;;;;;5155362;27;20211;-73
2023/04/27 12:52:38;;;;;;;10.23;4.50;;;18.60;66.00;;;;;;5152262;27;20228;-75
2023/04/27 12:55:08;;;;;;;7.77;5.57;;;18.90;65.60;;;;;;5152715;27;20244;-76
2023/04/27 12:57:52;;;;;;;7.90;5.43;;;18.50;56.90;;;;;;5155065;27;20194;-74
2023/04/27 13:00:20;;;;;;;8.53;5.27;;;18.40;57.50;;;;;;5152616;27;20299;-78